createdAt,value
2018-03-03T00:00:04.881Z,-3.83
2018-03-03T00:01:04.851Z,-4.03
2018-03-03T00:02:04.824Z,-3.91
2018-03-03T00:03:04.782Z,-3.90
2018-03-03T00:04:04.747Z,-3.86
2018-03-03T00:05:04.794Z,-3.94
2018-03-03T00:06:04.715Z,-3.91
2018-03-03T00:07:04.679Z,-3.94
2018-03-03T00:08:04.663Z,-3.91
2018-03-03T00:09:04.659Z,-3.94
2018-03-03T00:10:04.623Z,-3.96
2018-03-03T00:11:04.629Z,-3.97
2018-03-03T00:12:04.570Z,-3.94
2018-03-03T00:13:04.557Z,-4.00
2018-03-03T00:14:04.529Z,-3.94
2018-03-03T00:15:04.580Z,-4.03
2018-03-03T00:16:04.482Z,-4.10
2018-03-03T00:17:04.455Z,-3.99
2018-03-03T00:18:04.440Z,-4.01
2018-03-03T00:19:04.418Z,-4.01
2018-03-03T00:20:04.385Z,-4.10
2018-03-03T00:21:04.416Z,-4.04
2018-03-03T00:22:04.341Z,-3.97
2018-03-03T00:23:04.331Z,-4.04
2018-03-03T00:24:04.302Z,-4.00
2018-03-03T00:25:04.324Z,-4.03
2018-03-03T00:26:04.263Z,-4.00
2018-03-03T00:27:04.238Z,-4.01
2018-03-03T00:28:04.300Z,-4.04
2018-03-03T00:29:04.193Z,-4.01
2018-03-03T00:30:04.177Z,-3.99
2018-03-03T00:31:04.146Z,-4.04
2018-03-03T00:32:04.122Z,-4.07
2018-03-03T00:33:04.097Z,-4.06
2018-03-03T00:34:04.154Z,-4.03
2018-03-03T00:35:04.096Z,-4.06
2018-03-03T00:36:04.023Z,-4.04
2018-03-03T00:37:04.027Z,-4.00
2018-03-03T00:38:03.978Z,-3.96
2018-03-03T00:39:03.975Z,-4.10
2018-03-03T00:40:03.999Z,-4.15
2018-03-03T00:41:03.972Z,-4.17
2018-03-03T00:42:03.885Z,-4.12
2018-03-03T00:43:03.902Z,-4.17
2018-03-03T00:44:03.856Z,-4.15
2018-03-03T00:45:03.842Z,-4.15
2018-03-03T00:46:03.962Z,-4.15
2018-03-03T00:47:03.789Z,-4.21
2018-03-03T00:48:03.751Z,-4.20
2018-03-03T00:49:03.748Z,-4.11
2018-03-03T00:50:03.722Z,-4.15
2018-03-03T00:51:03.734Z,-4.15
2018-03-03T00:52:03.681Z,-4.25
2018-03-03T00:53:03.652Z,-4.25
2018-03-03T00:54:03.658Z,-4.12
2018-03-03T00:55:04.757Z,-4.28
2018-03-03T00:56:03.586Z,-4.30
2018-03-03T00:57:03.562Z,-4.28
2018-03-03T00:58:03.574Z,-4.25
2018-03-03T00:59:03.554Z,-4.21
2018-03-03T01:00:03.480Z,-4.28
2018-03-03T01:01:03.471Z,-4.28
2018-03-03T01:02:03.447Z,-4.30
2018-03-03T01:03:03.442Z,-4.28
2018-03-03T01:04:03.469Z,-4.25
2018-03-03T01:05:03.374Z,-4.32
2018-03-03T01:06:03.361Z,-4.32
2018-03-03T01:07:03.320Z,-4.28
2018-03-03T01:08:03.298Z,-4.36
2018-03-03T01:09:03.279Z,-4.32
2018-03-03T01:10:03.304Z,-4.30
2018-03-03T01:11:03.240Z,-4.29
2018-03-03T01:12:03.289Z,-4.24
2018-03-03T01:13:03.195Z,-4.33
2018-03-03T01:14:03.190Z,-4.35
2018-03-03T01:15:03.161Z,-4.32
2018-03-03T01:16:03.116Z,-4.32
2018-03-03T01:17:03.092Z,-4.36
2018-03-03T01:18:03.084Z,-4.29
2018-03-03T01:19:03.089Z,-4.35
2018-03-03T01:20:03.058Z,-4.29
2018-03-03T01:21:03.052Z,-4.29
2018-03-03T01:22:02.987Z,-4.29
2018-03-03T01:23:02.967Z,-4.21
2018-03-03T01:24:02.934Z,-4.33
2018-03-03T01:25:04.056Z,-4.32
2018-03-03T01:26:02.898Z,-4.32
2018-03-03T01:27:02.929Z,-4.33
2018-03-03T01:28:02.864Z,-4.32
2018-03-03T01:29:02.822Z,-4.35
2018-03-03T01:30:02.803Z,-4.36
2018-03-03T01:31:02.781Z,-4.43
2018-03-03T01:32:02.768Z,-4.47
2018-03-03T01:33:02.745Z,-4.47
2018-03-03T01:34:02.713Z,-4.42
2018-03-03T01:35:02.689Z,-4.39
2018-03-03T01:36:02.694Z,-4.40
2018-03-03T01:37:02.679Z,-4.35
2018-03-03T01:38:02.662Z,-4.42
2018-03-03T01:39:02.601Z,-4.35
2018-03-03T01:40:02.579Z,-4.42
2018-03-03T01:41:02.549Z,-4.46
2018-03-03T01:42:02.536Z,-4.36
2018-03-03T01:43:02.555Z,-4.40
2018-03-03T01:44:02.488Z,-4.43
2018-03-03T01:45:02.464Z,-4.35
2018-03-03T01:46:02.484Z,-4.33
2018-03-03T01:47:02.414Z,-4.28
2018-03-03T01:48:02.397Z,-4.25
2018-03-03T01:49:02.403Z,-4.25
2018-03-03T01:50:02.373Z,-4.24
2018-03-03T01:51:02.396Z,-4.28
2018-03-03T01:52:02.296Z,-4.30
2018-03-03T01:53:02.275Z,-4.30
2018-03-03T01:54:02.259Z,-4.28
2018-03-03T01:55:02.231Z,-4.32
2018-03-03T01:56:02.202Z,-4.28
2018-03-03T01:57:02.227Z,-4.43
2018-03-03T01:58:02.178Z,-4.42
2018-03-03T01:59:02.170Z,-4.38
2018-03-03T02:00:02.119Z,-4.42
2018-03-03T02:01:02.126Z,-4.42
2018-03-03T02:02:02.115Z,-4.39
2018-03-03T02:03:02.067Z,-4.43
2018-03-03T02:04:02.030Z,-4.43
2018-03-03T02:05:02.002Z,-4.43
2018-03-03T02:06:01.987Z,-4.43
2018-03-03T02:07:01.993Z,-4.39
2018-03-03T02:08:02.917Z,-4.40
2018-03-03T02:09:01.918Z,-4.46
2018-03-03T02:10:01.898Z,-4.40
2018-03-03T02:11:01.952Z,-4.49
2018-03-03T02:12:01.855Z,-4.42
2018-03-03T02:13:01.826Z,-4.39
2018-03-03T02:14:01.807Z,-4.36
2018-03-03T02:15:01.780Z,-4.38
2018-03-03T02:16:01.764Z,-4.40
2018-03-03T02:17:01.737Z,-4.43
2018-03-03T02:18:01.718Z,-4.36
2018-03-03T02:19:01.739Z,-4.42
2018-03-03T02:20:01.688Z,-4.39
2018-03-03T02:21:01.655Z,-4.40
2018-03-03T02:22:01.692Z,-4.46
2018-03-03T02:23:01.590Z,-4.49
2018-03-03T02:24:01.573Z,-4.38
2018-03-03T02:25:01.577Z,-4.42
2018-03-03T02:26:01.518Z,-4.46
2018-03-03T02:27:01.494Z,-4.39
2018-03-03T02:28:01.933Z,-4.47
2018-03-03T02:29:01.452Z,-4.42
2018-03-03T02:30:01.439Z,-4.46
2018-03-03T02:31:01.420Z,-4.46
2018-03-03T02:32:01.392Z,-4.49
2018-03-03T02:33:01.376Z,-4.47
2018-03-03T02:34:01.385Z,-4.46
2018-03-03T02:35:01.331Z,-4.43
2018-03-03T02:36:01.292Z,-4.50
2018-03-03T02:37:01.272Z,-4.46
2018-03-03T02:38:01.255Z,-4.51
2018-03-03T02:39:01.220Z,-4.54
2018-03-03T02:40:01.249Z,-4.51
2018-03-03T02:41:01.187Z,-4.49
2018-03-03T02:42:01.164Z,-4.49
2018-03-03T02:43:01.139Z,-4.46
2018-03-03T02:44:01.114Z,-4.51
2018-03-03T02:45:01.139Z,-4.47
2018-03-03T02:46:01.116Z,-4.46
2018-03-03T02:47:01.050Z,-4.46
2018-03-03T02:48:01.019Z,-4.47
2018-03-03T02:49:01.023Z,-4.46
2018-03-03T02:50:00.980Z,-4.46
2018-03-03T02:51:00.981Z,-4.36
2018-03-03T02:52:00.945Z,-4.36
2018-03-03T02:53:00.951Z,-4.36
2018-03-03T02:54:00.894Z,-4.42
2018-03-03T02:55:00.871Z,-4.39
2018-03-03T02:56:00.847Z,-4.46
2018-03-03T02:57:00.816Z,-4.39
2018-03-03T02:58:00.806Z,-4.35
2018-03-03T02:59:00.783Z,-4.39
2018-03-03T03:00:00.750Z,-4.38
2018-03-03T03:01:00.796Z,-4.40
2018-03-03T03:02:00.704Z,-4.43
2018-03-03T03:03:00.696Z,-4.43
2018-03-03T03:04:00.662Z,-4.39
2018-03-03T03:05:00.636Z,-4.43
2018-03-03T03:06:00.619Z,-4.46
2018-03-03T03:07:00.594Z,-4.43
2018-03-03T03:08:00.561Z,-4.40
2018-03-03T03:09:00.550Z,-4.54
2018-03-03T03:10:00.527Z,-4.53
2018-03-03T03:11:00.503Z,-4.53
2018-03-03T03:12:00.544Z,-4.46
2018-03-03T03:13:00.466Z,-4.47
2018-03-03T03:14:00.425Z,-4.51
2018-03-03T03:15:00.405Z,-4.53
2018-03-03T03:16:00.377Z,-4.56
2018-03-03T03:17:00.363Z,-4.58
2018-03-03T03:18:00.383Z,-4.57
2018-03-03T03:19:00.317Z,-4.54
2018-03-03T03:20:00.300Z,-4.47
2018-03-03T03:21:00.298Z,-4.47
2018-03-03T03:22:00.239Z,-4.49
2018-03-03T03:23:00.257Z,-4.47
2018-03-03T03:24:00.201Z,-4.57
2018-03-03T03:25:00.177Z,-4.51
2018-03-03T03:26:00.166Z,-4.61
2018-03-03T03:27:00.141Z,-4.61
2018-03-03T03:28:00.119Z,-4.61
2018-03-03T03:29:00.124Z,-4.69
2018-03-03T03:30:00.065Z,-4.58
2018-03-03T03:31:00.057Z,-4.65
2018-03-03T03:32:00.066Z,-4.65
2018-03-03T03:32:59.992Z,-4.65
2018-03-03T03:33:59.969Z,-4.71
2018-03-03T03:34:59.952Z,-4.68
2018-03-03T03:35:59.931Z,-4.68
2018-03-03T03:36:59.916Z,-4.63
2018-03-03T03:37:59.922Z,-4.63
2018-03-03T03:38:59.887Z,-4.71
2018-03-03T03:39:59.838Z,-4.54
2018-03-03T03:40:59.820Z,-4.67
2018-03-03T03:41:59.798Z,-4.60
2018-03-03T03:42:59.761Z,-4.63
2018-03-03T03:43:59.746Z,-4.60
2018-03-03T03:44:59.789Z,-4.56
2018-03-03T03:45:59.695Z,-4.67
2018-03-03T03:46:59.681Z,-4.63
2018-03-03T03:47:59.664Z,-4.67
2018-03-03T03:48:59.618Z,-4.58
2018-03-03T03:49:59.605Z,-4.67
2018-03-03T03:50:59.616Z,-4.63
2018-03-03T03:51:59.549Z,-4.68
2018-03-03T03:52:59.554Z,-4.69
2018-03-03T03:53:59.517Z,-4.69
2018-03-03T03:54:59.501Z,-4.68
2018-03-03T03:55:59.535Z,-4.71
2018-03-03T03:56:59.441Z,-4.67
2018-03-03T03:57:59.420Z,-4.68
2018-03-03T03:58:59.405Z,-4.65
2018-03-03T03:59:59.387Z,-4.67
2018-03-03T04:00:59.353Z,-4.68
2018-03-03T04:01:59.387Z,-4.69
2018-03-03T04:02:59.309Z,-4.72
2018-03-03T04:03:59.271Z,-4.69
2018-03-03T04:04:59.262Z,-4.74
2018-03-03T04:05:59.245Z,-4.71
2018-03-03T04:06:59.224Z,-4.69
2018-03-03T04:07:59.203Z,-4.77
2018-03-03T04:08:59.167Z,-4.79
2018-03-03T04:09:59.146Z,-4.79
2018-03-03T04:10:59.128Z,-4.83
2018-03-03T04:11:59.114Z,-4.78
2018-03-03T04:12:59.114Z,-4.89
2018-03-03T04:13:59.058Z,-4.81
2018-03-03T04:14:59.031Z,-4.78
2018-03-03T04:15:59.021Z,-4.92
2018-03-03T04:16:58.978Z,-4.86
2018-03-03T04:17:59.023Z,-4.89
2018-03-03T04:18:58.948Z,-4.78
2018-03-03T04:19:58.913Z,-4.83
2018-03-03T04:20:58.882Z,-4.83
2018-03-03T04:21:58.866Z,-4.77
2018-03-03T04:22:58.857Z,-4.83
2018-03-03T04:23:58.856Z,-4.83
2018-03-03T04:24:58.835Z,-4.79
2018-03-03T04:25:58.774Z,-4.89
2018-03-03T04:26:58.764Z,-4.79
2018-03-03T04:27:58.730Z,-4.90
2018-03-03T04:28:58.753Z,-4.83
2018-03-03T04:29:58.694Z,-4.95
2018-03-03T04:30:58.699Z,-4.86
2018-03-03T04:31:58.628Z,-4.95
2018-03-03T04:32:58.618Z,-4.81
2018-03-03T04:33:58.598Z,-4.87
2018-03-03T04:34:58.624Z,-4.78
2018-03-03T04:35:58.537Z,-4.78
2018-03-03T04:36:58.513Z,-4.85
2018-03-03T04:37:58.496Z,-4.81
2018-03-03T04:38:58.466Z,-4.89
2018-03-03T04:39:58.461Z,-4.78
2018-03-03T04:40:58.420Z,-4.89
2018-03-03T04:41:58.398Z,-4.86
2018-03-03T04:42:58.384Z,-4.90
2018-03-03T04:43:58.354Z,-4.89
2018-03-03T04:44:58.332Z,-4.87
2018-03-03T04:45:58.333Z,-4.85
2018-03-03T04:46:58.277Z,-4.81
2018-03-03T04:47:58.252Z,-4.86
2018-03-03T04:48:58.236Z,-4.89
2018-03-03T04:49:58.215Z,-4.86
2018-03-03T04:50:58.195Z,-4.97
2018-03-03T04:51:58.161Z,-4.90
2018-03-03T04:52:58.154Z,-4.89
2018-03-03T04:53:58.126Z,-4.90
2018-03-03T04:54:58.101Z,-4.86
2018-03-03T04:55:58.080Z,-4.87
2018-03-03T04:56:58.043Z,-4.96
2018-03-03T04:57:58.034Z,-4.89
2018-03-03T04:58:57.998Z,-4.95
2018-03-03T04:59:58.015Z,-4.95
2018-03-03T05:00:57.962Z,-4.96
2018-03-03T05:01:57.936Z,-5.03
2018-03-03T05:02:57.917Z,-5.03
2018-03-03T05:03:57.885Z,-4.97
2018-03-03T05:04:57.892Z,-4.90
2018-03-03T05:05:57.838Z,-4.95
2018-03-03T05:06:57.814Z,-4.95
2018-03-03T05:07:57.795Z,-4.89
2018-03-03T05:08:57.776Z,-5.00
2018-03-03T05:09:57.777Z,-4.92
2018-03-03T05:10:57.725Z,-5.08
2018-03-03T05:11:57.700Z,-4.99
2018-03-03T05:12:57.686Z,-5.04
2018-03-03T05:13:57.660Z,-5.00
2018-03-03T05:14:57.640Z,-5.08
2018-03-03T05:15:57.612Z,-5.03
2018-03-03T05:16:57.584Z,-4.99
2018-03-03T05:17:57.617Z,-4.95
2018-03-03T05:18:57.541Z,-4.97
2018-03-03T05:19:57.525Z,-5.00
2018-03-03T05:20:57.492Z,-5.00
2018-03-03T05:21:57.469Z,-5.07
2018-03-03T05:22:57.443Z,-5.06
2018-03-03T05:23:57.421Z,-5.07
2018-03-03T05:24:57.455Z,-4.99
2018-03-03T05:25:57.386Z,-5.06
2018-03-03T05:26:57.358Z,-5.00
2018-03-03T05:27:57.336Z,-5.07
2018-03-03T05:28:57.308Z,-5.06
2018-03-03T05:29:57.286Z,-4.97
2018-03-03T05:30:57.288Z,-5.03
2018-03-03T05:31:57.232Z,-5.14
2018-03-03T05:32:57.216Z,-5.07
2018-03-03T05:33:57.200Z,-5.04
2018-03-03T05:34:57.213Z,-5.11
2018-03-03T05:35:57.142Z,-5.06
2018-03-03T05:36:57.118Z,-4.99
2018-03-03T05:37:57.103Z,-5.13
2018-03-03T05:38:57.079Z,-5.14
2018-03-03T05:39:57.049Z,-5.10
2018-03-03T05:40:57.040Z,-5.11
2018-03-03T05:41:57.009Z,-5.07
2018-03-03T05:42:56.983Z,-5.06
2018-03-03T05:43:56.994Z,-5.10
2018-03-03T05:44:56.941Z,-5.08
2018-03-03T05:45:56.976Z,-5.08
2018-03-03T05:46:56.884Z,-5.13
2018-03-03T05:47:56.869Z,-5.13
2018-03-03T05:48:56.840Z,-5.17
2018-03-03T05:49:56.816Z,-5.22
2018-03-03T05:50:56.802Z,-5.11
2018-03-03T05:51:56.821Z,-5.13
2018-03-03T05:52:56.746Z,-5.23
2018-03-03T05:53:56.758Z,-5.11
2018-03-03T05:54:56.708Z,-5.22
2018-03-03T05:55:56.745Z,-5.18
2018-03-03T05:56:56.662Z,-5.26
2018-03-03T05:57:56.629Z,-5.23
2018-03-03T05:58:56.603Z,-5.30
2018-03-03T05:59:56.584Z,-5.26
2018-03-03T06:00:56.570Z,-5.33
2018-03-03T06:01:56.565Z,-5.37
2018-03-03T06:02:56.518Z,-5.41
2018-03-03T06:03:56.491Z,-5.35
2018-03-03T06:04:56.476Z,-5.36
2018-03-03T06:05:56.449Z,-5.46
2018-03-03T06:06:56.481Z,-5.43
2018-03-03T06:07:56.391Z,-5.35
2018-03-03T06:08:56.382Z,-5.39
2018-03-03T06:09:56.360Z,-5.44
2018-03-03T06:10:56.330Z,-5.35
2018-03-03T06:11:56.310Z,-5.39
2018-03-03T06:12:56.340Z,-5.32
2018-03-03T06:13:56.252Z,-5.35
2018-03-03T06:14:56.244Z,-5.27
2018-03-03T06:15:56.216Z,-5.26
2018-03-03T06:16:56.200Z,-5.30
2018-03-03T06:17:56.167Z,-5.32
2018-03-03T06:18:56.152Z,-5.29
2018-03-03T06:19:56.182Z,-5.25
2018-03-03T06:20:56.098Z,-5.27
2018-03-03T06:21:56.074Z,-5.22
2018-03-03T06:22:56.050Z,-5.22
2018-03-03T06:23:56.030Z,-5.17
2018-03-03T06:24:56.010Z,-5.23
2018-03-03T06:25:55.982Z,-5.23
2018-03-03T06:26:55.952Z,-5.18
2018-03-03T06:27:55.930Z,-5.30
2018-03-03T06:28:55.908Z,-5.37
2018-03-03T06:29:55.888Z,-5.39
2018-03-03T06:30:55.871Z,-5.26
2018-03-03T06:31:55.834Z,-5.26
2018-03-03T06:32:55.814Z,-5.30
2018-03-03T06:33:55.805Z,-5.22
2018-03-03T06:34:56.060Z,-5.22
2018-03-03T06:35:55.789Z,-5.19
2018-03-03T06:36:55.728Z,-5.29
2018-03-03T06:37:55.711Z,-5.30
2018-03-03T06:38:55.677Z,-5.23
2018-03-03T06:39:55.650Z,-5.23
2018-03-03T06:40:55.627Z,-5.25
2018-03-03T06:41:55.602Z,-5.26
2018-03-03T06:42:55.643Z,-5.19
2018-03-03T06:43:55.569Z,-5.32
2018-03-03T06:44:55.542Z,-5.18
2018-03-03T06:45:55.514Z,-5.18
2018-03-03T06:46:55.485Z,-5.23
2018-03-03T06:47:55.464Z,-5.30
2018-03-03T06:48:55.467Z,-5.23
2018-03-03T06:49:55.457Z,-5.19
2018-03-03T06:50:55.397Z,-5.18
2018-03-03T06:51:55.379Z,-5.10
2018-03-03T06:52:55.355Z,-5.13
2018-03-03T06:53:55.336Z,-5.17
2018-03-03T06:54:55.358Z,-5.18
2018-03-03T06:55:55.293Z,-5.08
2018-03-03T06:56:55.271Z,-5.08
2018-03-03T06:57:55.232Z,-5.08
2018-03-03T06:58:55.210Z,-5.08
2018-03-03T06:59:55.184Z,-5.19
2018-03-03T07:00:55.175Z,-5.10
2018-03-03T07:01:55.165Z,-5.08
2018-03-03T07:02:55.113Z,-5.07
2018-03-03T07:03:55.090Z,-5.10
2018-03-03T07:04:55.363Z,-5.06
2018-03-03T07:05:55.124Z,-5.08
2018-03-03T07:06:55.023Z,-4.99
2018-03-03T07:07:54.992Z,-5.10
2018-03-03T07:08:54.975Z,-5.08
2018-03-03T07:09:54.951Z,-5.04
2018-03-03T07:10:54.931Z,-5.03
2018-03-03T07:11:54.950Z,-5.00
2018-03-03T07:12:54.889Z,-5.04
2018-03-03T07:13:54.864Z,-5.03
2018-03-03T07:14:54.837Z,-4.99
2018-03-03T07:15:54.834Z,-5.04
2018-03-03T07:16:54.799Z,-5.00
2018-03-03T07:17:54.791Z,-4.96
2018-03-03T07:18:54.749Z,-4.92
2018-03-03T07:19:54.714Z,-4.89
2018-03-03T07:20:54.702Z,-4.92
2018-03-03T07:21:54.677Z,-4.90
2018-03-03T07:22:54.707Z,-5.00
2018-03-03T07:23:54.636Z,-4.86
2018-03-03T07:24:54.621Z,-4.85
2018-03-03T07:25:54.582Z,-4.95
2018-03-03T07:26:54.554Z,-4.85
2018-03-03T07:27:54.547Z,-4.79
2018-03-03T07:28:54.579Z,-4.81
2018-03-03T07:29:54.498Z,-4.75
2018-03-03T07:30:54.482Z,-4.75
2018-03-03T07:31:54.451Z,-4.72
2018-03-03T07:32:54.431Z,-4.71
2018-03-03T07:33:54.397Z,-4.77
2018-03-03T07:34:54.381Z,-4.69
2018-03-03T07:35:54.360Z,-4.69
2018-03-03T07:36:54.338Z,-4.61
2018-03-03T07:37:54.323Z,-4.63
2018-03-03T07:38:54.283Z,-4.71
2018-03-03T07:39:54.289Z,-4.57
2018-03-03T07:40:54.241Z,-4.58
2018-03-03T07:41:54.256Z,-4.54
2018-03-03T07:42:54.200Z,-4.57
2018-03-03T07:43:54.187Z,-4.57
2018-03-03T07:44:54.179Z,-4.57
2018-03-03T07:45:54.126Z,-4.57
2018-03-03T07:46:54.191Z,-4.56
2018-03-03T07:47:54.085Z,-4.49
2018-03-03T07:48:54.070Z,-4.43
2018-03-03T07:49:54.043Z,-4.40
2018-03-03T07:50:54.021Z,-4.39
2018-03-03T07:51:54.049Z,-4.43
2018-03-03T07:52:53.978Z,-4.33
2018-03-03T07:53:53.946Z,-4.28
2018-03-03T07:54:53.952Z,-4.25
2018-03-03T07:55:53.910Z,-4.30
2018-03-03T07:56:53.885Z,-4.20
2018-03-03T07:57:53.891Z,-4.10
2018-03-03T07:58:53.848Z,-4.12
2018-03-03T07:59:53.818Z,-4.20
2018-03-03T08:00:53.794Z,-4.12
2018-03-03T08:01:53.776Z,-4.10
2018-03-03T08:02:53.802Z,-4.14
2018-03-03T08:03:53.719Z,-4.12
2018-03-03T08:04:53.716Z,-4.11
2018-03-03T08:05:53.691Z,-4.15
2018-03-03T08:06:53.668Z,-4.01
2018-03-03T08:07:53.641Z,-4.07
2018-03-03T08:08:53.659Z,-4.01
2018-03-03T08:09:53.587Z,-4.01
2018-03-03T08:10:53.569Z,-3.91
2018-03-03T08:11:53.557Z,-3.97
2018-03-03T08:12:53.592Z,-3.96
2018-03-03T08:13:53.517Z,-3.94
2018-03-03T08:14:53.487Z,-3.94
2018-03-03T08:15:53.482Z,-4.01
2018-03-03T08:16:53.441Z,-3.96
2018-03-03T08:17:53.450Z,-3.96
2018-03-03T08:18:53.403Z,-3.94
2018-03-03T08:19:53.371Z,-3.94
2018-03-03T08:20:53.400Z,-3.88
2018-03-03T08:21:53.330Z,-3.88
2018-03-03T08:22:53.369Z,-3.86
2018-03-03T08:23:53.292Z,-3.90
2018-03-03T08:24:53.259Z,-3.88
2018-03-03T08:25:53.242Z,-3.82
2018-03-03T08:26:53.209Z,-3.90
2018-03-03T08:27:53.189Z,-3.82
2018-03-03T08:28:53.211Z,-3.82
2018-03-03T08:29:53.150Z,-3.78
2018-03-03T08:30:53.187Z,-3.66
2018-03-03T08:31:53.103Z,-3.78
2018-03-03T08:32:53.094Z,-3.78
2018-03-03T08:33:53.062Z,-3.75
2018-03-03T08:34:53.043Z,-3.67
2018-03-03T08:35:53.015Z,-3.59
2018-03-03T08:36:53.007Z,-3.57
2018-03-03T08:37:52.971Z,-3.57
2018-03-03T08:38:52.990Z,-3.49
2018-03-03T08:39:52.927Z,-3.54
2018-03-03T08:40:52.920Z,-3.56
2018-03-03T08:41:52.895Z,-3.56
2018-03-03T08:42:52.921Z,-3.53
2018-03-03T08:43:52.859Z,-3.52
2018-03-03T08:44:52.866Z,-3.54
2018-03-03T08:45:52.813Z,-3.49
2018-03-03T08:46:52.782Z,-3.43
2018-03-03T08:47:52.760Z,-3.41
2018-03-03T08:48:52.735Z,-3.36
2018-03-03T08:49:52.774Z,-3.38
2018-03-03T08:50:52.693Z,-3.43
2018-03-03T08:51:53.245Z,-3.43
2018-03-03T08:52:52.649Z,-3.30
2018-03-03T08:53:52.682Z,-3.31
2018-03-03T08:54:52.611Z,-3.41
2018-03-03T08:55:52.624Z,-3.36
2018-03-03T08:56:52.626Z,-3.24
2018-03-03T08:57:52.555Z,-3.35
2018-03-03T08:58:52.521Z,-3.30
2018-03-03T08:59:52.492Z,-3.30
2018-03-03T09:00:52.499Z,-3.21
2018-03-03T09:01:52.466Z,-3.10
2018-03-03T09:02:52.487Z,-3.12
2018-03-03T09:03:52.423Z,-3.15
2018-03-03T09:04:52.397Z,-3.18
2018-03-03T09:05:52.378Z,-3.05
2018-03-03T09:06:52.344Z,-3.18
2018-03-03T09:07:52.337Z,-3.07
2018-03-03T09:08:52.321Z,-3.00
2018-03-03T09:09:52.326Z,-2.97
2018-03-03T09:10:52.269Z,-3.05
2018-03-03T09:11:52.269Z,-3.06
2018-03-03T09:12:52.217Z,-3.00
2018-03-03T09:13:52.242Z,-2.99
2018-03-03T09:14:52.183Z,-2.99
2018-03-03T09:15:52.168Z,-2.94
2018-03-03T09:16:52.143Z,-2.97
2018-03-03T09:17:52.122Z,-2.89
2018-03-03T09:18:52.125Z,-2.91
2018-03-03T09:19:52.079Z,-2.88
2018-03-03T09:20:52.058Z,-2.82
2018-03-03T09:21:52.044Z,-2.70
2018-03-03T09:22:52.020Z,-2.73
2018-03-03T09:23:51.997Z,-2.67
2018-03-03T09:24:52.004Z,-2.64
2018-03-03T09:25:51.965Z,-2.61
2018-03-03T09:26:51.924Z,-2.53
2018-03-03T09:27:51.911Z,-2.49
2018-03-03T09:28:51.931Z,-2.45
2018-03-03T09:29:51.868Z,-2.34
2018-03-03T09:30:51.849Z,-2.32
2018-03-03T09:31:51.866Z,-2.40
2018-03-03T09:32:51.816Z,-2.29
2018-03-03T09:33:51.800Z,-2.30
2018-03-03T09:34:51.852Z,-2.35
2018-03-03T09:35:51.776Z,-2.23
2018-03-03T09:36:51.737Z,-2.16
2018-03-03T09:37:51.739Z,-2.15
2018-03-03T09:38:51.722Z,-2.10
2018-03-03T09:39:51.677Z,-2.12
2018-03-03T09:40:51.665Z,-2.10
2018-03-03T09:41:51.682Z,-2.10
2018-03-03T09:42:51.606Z,-2.15
2018-03-03T09:43:51.594Z,-2.13
2018-03-03T09:44:51.568Z,-2.10
2018-03-03T09:45:51.556Z,-2.03
2018-03-03T09:46:51.532Z,-2.03
2018-03-03T09:47:51.552Z,-1.98
2018-03-03T09:48:51.517Z,-2.02
2018-03-03T09:49:51.477Z,-1.92
2018-03-03T09:50:51.447Z,-1.95
2018-03-03T09:51:51.426Z,-1.90
2018-03-03T09:52:51.470Z,-1.88
2018-03-03T09:53:51.397Z,-1.91
2018-03-03T09:54:51.374Z,-1.82
2018-03-03T09:55:51.360Z,-1.73
2018-03-03T09:56:51.333Z,-1.76
2018-03-03T09:57:51.311Z,-1.74
2018-03-03T09:58:51.347Z,-1.72
2018-03-03T09:59:51.277Z,-1.76
2018-03-03T10:00:51.252Z,-1.69
2018-03-03T10:01:58.933Z,-1.73
2018-03-03T10:02:51.219Z,-1.66
2018-03-03T10:03:51.253Z,-1.67
2018-03-03T10:04:51.176Z,-1.74
2018-03-03T10:05:51.168Z,-1.66
2018-03-03T10:06:51.129Z,-1.64
2018-03-03T10:07:51.112Z,-1.67
2018-03-03T10:08:51.103Z,-1.62
2018-03-03T10:09:51.105Z,-1.61
2018-03-03T10:10:51.089Z,-1.49
2018-03-03T10:11:51.040Z,-1.58
2018-03-03T10:12:51.022Z,-1.51
2018-03-03T10:13:51.007Z,-1.51
2018-03-03T10:14:51.012Z,-1.55
2018-03-03T10:15:50.954Z,-1.41
2018-03-03T10:16:50.938Z,-1.48
2018-03-03T10:17:50.930Z,-1.41
2018-03-03T10:18:50.907Z,-1.30
2018-03-03T10:19:50.883Z,-1.35
2018-03-03T10:20:50.892Z,-1.33
2018-03-03T10:21:50.852Z,-1.30
2018-03-03T10:22:50.832Z,-1.22
2018-03-03T10:23:50.814Z,-1.23
2018-03-03T10:24:50.785Z,-1.37
2018-03-03T10:25:50.822Z,-1.35
2018-03-03T10:26:50.750Z,-1.27
2018-03-03T10:27:50.728Z,-1.33
2018-03-03T10:28:50.709Z,-1.30
2018-03-03T10:29:50.727Z,-1.19
2018-03-03T10:30:50.670Z,-1.12
2018-03-03T10:31:50.710Z,-1.01
2018-03-03T10:32:50.634Z,-0.98
2018-03-03T10:33:50.621Z,-0.99
2018-03-03T10:34:50.607Z,-0.89
2018-03-03T10:35:50.582Z,-0.79
2018-03-03T10:36:50.552Z,-0.82
2018-03-03T10:37:50.556Z,-0.75
2018-03-03T10:38:50.530Z,-0.65
2018-03-03T10:39:50.552Z,-0.57
2018-03-03T10:40:50.492Z,-0.58
2018-03-03T10:41:50.459Z,-0.54
2018-03-03T10:42:50.457Z,-0.47
2018-03-03T10:43:50.436Z,-0.34
2018-03-03T10:44:50.421Z,-0.44
2018-03-03T10:45:50.397Z,-0.25
2018-03-03T10:46:50.376Z,-0.25
2018-03-03T10:47:50.382Z,-0.14
2018-03-03T10:48:50.343Z,-0.14
2018-03-03T10:49:50.338Z,-0.10
2018-03-03T10:50:50.376Z,-0.04
2018-03-03T10:51:50.284Z,0.07
2018-03-03T10:52:50.334Z,0.21
2018-03-03T10:53:50.255Z,0.26
2018-03-03T10:54:50.228Z,0.33
2018-03-03T10:55:50.211Z,0.46
2018-03-03T10:56:50.208Z,0.38
2018-03-03T10:57:50.175Z,0.35
2018-03-03T10:58:50.202Z,0.42
2018-03-03T10:59:50.149Z,0.39
2018-03-03T11:00:50.130Z,0.46
2018-03-03T11:01:50.111Z,0.49
2018-03-03T11:02:50.097Z,0.49
2018-03-03T11:03:50.132Z,0.46
2018-03-03T11:04:50.055Z,0.44
2018-03-03T11:05:50.038Z,0.57
2018-03-03T11:06:50.027Z,0.58
2018-03-03T11:07:50.003Z,0.62
2018-03-03T11:08:49.998Z,0.69
2018-03-03T11:09:49.981Z,0.70
2018-03-03T11:10:49.959Z,0.83
2018-03-03T11:11:49.959Z,0.87
2018-03-03T11:12:49.928Z,0.94
2018-03-03T11:13:49.903Z,0.93
2018-03-03T11:14:49.887Z,0.93
2018-03-03T11:15:49.935Z,0.96
2018-03-03T11:16:49.856Z,1.08
2018-03-03T11:17:49.839Z,1.08
2018-03-03T11:18:49.818Z,0.98
2018-03-03T11:19:49.805Z,1.04
2018-03-03T11:20:49.786Z,1.09
2018-03-03T11:21:49.771Z,0.98
2018-03-03T11:22:49.748Z,0.98
2018-03-03T11:23:49.734Z,1.09
2018-03-03T11:24:49.706Z,1.06
2018-03-03T11:25:49.692Z,1.26
2018-03-03T11:26:49.694Z,1.45
2018-03-03T11:27:49.732Z,1.51
2018-03-03T11:28:49.644Z,1.60
2018-03-03T11:29:49.626Z,1.59
2018-03-03T11:30:49.615Z,1.65
2018-03-03T11:31:49.596Z,1.62
2018-03-03T11:32:49.585Z,1.77
2018-03-03T11:33:49.593Z,1.77
2018-03-03T11:34:49.582Z,1.90
2018-03-03T11:35:49.533Z,1.99
2018-03-03T11:36:49.527Z,2.05
2018-03-03T11:37:49.577Z,2.07
2018-03-03T11:38:49.500Z,2.10
2018-03-03T11:39:49.481Z,2.12
2018-03-03T11:40:49.455Z,2.21
2018-03-03T11:41:49.439Z,2.34
2018-03-03T11:42:49.424Z,2.61
2018-03-03T11:43:49.415Z,2.69
2018-03-03T11:44:49.400Z,2.77
2018-03-03T11:45:49.380Z,2.82
2018-03-03T11:46:49.360Z,2.79
2018-03-03T11:47:49.351Z,2.67
2018-03-03T11:48:49.366Z,2.60
2018-03-03T11:49:49.325Z,2.63
2018-03-03T11:50:49.329Z,2.52
2018-03-03T11:51:49.293Z,2.52
2018-03-03T11:52:49.276Z,2.59
2018-03-03T11:53:49.260Z,2.67
2018-03-03T11:54:49.281Z,2.77
2018-03-03T11:55:49.236Z,2.82
2018-03-03T11:56:49.231Z,2.84
2018-03-03T11:57:49.202Z,3.03
2018-03-03T11:58:49.185Z,3.13
2018-03-03T11:59:49.293Z,3.20
2018-03-03T12:00:49.151Z,3.39
2018-03-03T12:01:49.153Z,3.31
2018-03-03T12:02:49.128Z,3.36
2018-03-03T12:03:49.115Z,3.31
2018-03-03T12:04:49.109Z,3.33
2018-03-03T12:05:49.139Z,3.42
2018-03-03T12:06:49.067Z,3.42
2018-03-03T12:07:49.061Z,3.47
2018-03-03T12:08:49.047Z,3.50
2018-03-03T12:09:49.037Z,3.58
2018-03-03T12:10:49.013Z,3.50
2018-03-03T12:11:49.024Z,3.54
2018-03-03T12:12:48.994Z,3.62
2018-03-03T12:13:48.983Z,3.62
2018-03-03T12:14:48.959Z,3.52
2018-03-03T12:15:48.950Z,3.55
2018-03-03T12:16:49.016Z,3.54
2018-03-03T12:17:48.929Z,3.50
2018-03-03T12:18:48.914Z,3.55
2018-03-03T12:19:48.897Z,3.52
2018-03-03T12:20:48.885Z,3.54
2018-03-03T12:21:48.877Z,3.61
2018-03-03T12:22:48.887Z,3.60
2018-03-03T12:23:48.845Z,3.55
2018-03-03T12:24:48.828Z,3.55
2018-03-03T12:25:48.814Z,3.54
2018-03-03T12:26:48.812Z,3.65
2018-03-03T12:27:48.798Z,3.57
2018-03-03T12:28:48.775Z,3.55
2018-03-03T12:29:48.772Z,3.57
2018-03-03T12:30:48.740Z,3.52
2018-03-03T12:31:48.803Z,3.47
2018-03-03T12:32:48.721Z,3.57
2018-03-03T12:33:48.717Z,3.52
2018-03-03T12:34:48.702Z,3.47
2018-03-03T12:35:48.673Z,3.50
2018-03-03T12:36:48.666Z,3.52
2018-03-03T12:37:48.684Z,3.51
2018-03-03T12:38:48.643Z,3.58
2018-03-03T12:39:48.652Z,3.55
2018-03-03T12:40:48.619Z,3.52
2018-03-03T12:41:48.600Z,3.58
2018-03-03T12:42:48.620Z,3.75
2018-03-03T12:43:48.583Z,3.62
2018-03-03T12:44:48.832Z,3.76
2018-03-03T12:45:48.553Z,3.78
2018-03-03T12:46:48.558Z,3.79
2018-03-03T12:47:48.521Z,3.72
2018-03-03T12:48:48.501Z,3.75
2018-03-03T12:49:48.564Z,3.61
2018-03-03T12:50:48.473Z,3.65
2018-03-03T12:51:48.462Z,3.62
2018-03-03T12:52:48.452Z,3.79
2018-03-03T12:53:48.450Z,3.79
2018-03-03T12:54:48.425Z,3.79
2018-03-03T12:55:48.414Z,3.91